createdAt,value
2023-03-31T00:01:05.919Z,99957.31
2023-03-31T00:05:59.421Z,99889.47
2023-03-31T00:10:51.973Z,100013.22
2023-03-31T00:15:43.745Z,99675.50
2023-03-31T00:20:38.204Z,99805.06
2023-03-31T00:25:30.046Z,99912.94
2023-03-31T00:30:21.739Z,99980.00
2023-03-31T00:35:13.526Z,99961.97
2023-03-31T00:40:09.313Z,99941.09
2023-03-31T00:45:28.826Z,99909.25
2023-03-31T00:50:29.244Z,99912.66
2023-03-31T00:55:28.412Z,99771.13
2023-03-31T01:00:20.419Z,99712.19
2023-03-31T01:05:12.406Z,99671.75
2023-03-31T01:10:05.487Z,99866.81
2023-03-31T01:14:57.328Z,99419.44
2023-03-31T01:20:15.436Z,99694.19
2023-03-31T01:25:27.259Z,99690.06
2023-03-31T01:30:46.695Z,99843.19
2023-03-31T01:36:06.570Z,99628.59
2023-03-31T01:41:24.744Z,99823.91
2023-03-31T01:46:28.581Z,99596.94
2023-03-31T01:51:35.583Z,99721.50
2023-03-31T01:56:39.334Z,99581.31
2023-03-31T02:01:40.929Z,99805.81
2023-03-31T02:06:39.902Z,99800.41
2023-03-31T02:11:34.634Z,99614.59
2023-03-31T02:16:30.445Z,99714.84
2023-03-31T02:21:22.842Z,99488.53
2023-03-31T02:26:17.327Z,99743.00
2023-03-31T02:31:21.583Z,99720.72
2023-03-31T02:36:13.491Z,99692.47
2023-03-31T02:41:06.874Z,99708.94
2023-03-31T02:45:58.698Z,99565.78
2023-03-31T02:50:59.589Z,99648.94
2023-03-31T02:56:22.623Z,99589.16
2023-03-31T03:01:43.572Z,99574.13
2023-03-31T03:07:00.244Z,99598.53
2023-03-31T03:11:58.306Z,99590.66
2023-03-31T03:16:58.178Z,99397.91
2023-03-31T03:21:50.399Z,99404.69
2023-03-31T03:26:42.066Z,99585.13
2023-03-31T03:31:34.780Z,99465.16
2023-03-31T03:36:26.738Z,99319.97
2023-03-31T03:41:18.545Z,99401.69
2023-03-31T03:46:10.386Z,99391.66
2023-03-31T03:51:02.308Z,99354.34
2023-03-31T03:55:54.217Z,99383.41
2023-03-31T04:00:46.283Z,99457.97
2023-03-31T04:05:38.167Z,99370.72
2023-03-31T04:10:30.326Z,99388.84
2023-03-31T04:15:22.112Z,99224.44
2023-03-31T04:20:15.152Z,99142.25
2023-03-31T04:25:16.736Z,99007.25
2023-03-31T04:30:09.241Z,99055.94
2023-03-31T04:35:02.935Z,99168.59
2023-03-31T04:39:54.803Z,99308.19
2023-03-31T04:44:46.552Z,99186.53
2023-03-31T04:49:38.398Z,99100.19
2023-03-31T04:54:30.438Z,99139.00
2023-03-31T04:59:22.294Z,98717.53
2023-03-31T05:04:14.220Z,98967.63
2023-03-31T05:09:06.552Z,99181.13
2023-03-31T05:13:58.346Z,99031.56
2023-03-31T05:18:50.228Z,98903.88
2023-03-31T05:23:42.785Z,98698.59
2023-03-31T05:28:36.024Z,99052.63
2023-03-31T05:33:28.334Z,99036.44
2023-03-31T05:38:21.567Z,99097.44
2023-03-31T05:43:13.608Z,99121.88
2023-03-31T05:48:06.177Z,99006.69
2023-03-31T05:52:57.999Z,99071.38
2023-03-31T05:57:49.709Z,99264.44
2023-03-31T06:02:41.838Z,98837.63
2023-03-31T06:07:33.624Z,99068.56
2023-03-31T06:12:25.507Z,99044.38
2023-03-31T06:17:17.191Z,99144.69
2023-03-31T06:22:08.921Z,98994.03
2023-03-31T06:27:01.364Z,99107.84
2023-03-31T06:31:53.566Z,99197.91
2023-03-31T06:36:45.700Z,99073.72
2023-03-31T06:41:38.865Z,98821.34
2023-03-31T06:46:30.758Z,99220.19
2023-03-31T06:51:22.622Z,98934.78
2023-03-31T06:56:14.433Z,98864.38
2023-03-31T07:01:07.127Z,98910.06
2023-03-31T07:05:59.384Z,98969.53
2023-03-31T07:10:57.667Z,99186.38
2023-03-31T07:15:50.343Z,98862.09
2023-03-31T07:20:42.778Z,98937.84
2023-03-31T07:25:35.979Z,98925.75
2023-03-31T07:30:27.934Z,98999.97
2023-03-31T07:35:20.732Z,99169.34
2023-03-31T07:40:19.797Z,99141.88
2023-03-31T07:45:11.574Z,98873.75
2023-03-31T07:50:03.665Z,98790.84
2023-03-31T07:54:55.408Z,98921.66
2023-03-31T07:59:47.455Z,98952.09
2023-03-31T08:04:42.194Z,98921.13
2023-03-31T08:09:34.089Z,98994.84
2023-03-31T08:14:40.078Z,98963.22
2023-03-31T08:19:33.198Z,98861.66
2023-03-31T08:24:25.061Z,99109.63
2023-03-31T08:29:16.860Z,98998.94
2023-03-31T08:34:08.611Z,99120.50
2023-03-31T08:39:01.103Z,98886.97
2023-03-31T08:43:56.157Z,99070.91
2023-03-31T08:48:55.026Z,99055.81
2023-03-31T08:53:53.331Z,99034.22
2023-03-31T08:58:48.082Z,99088.66
2023-03-31T09:04:10.944Z,99096.09
2023-03-31T09:09:11.998Z,99062.00
2023-03-31T09:14:09.733Z,99081.41
2023-03-31T09:19:02.566Z,98854.34
2023-03-31T09:24:03.446Z,99072.63
2023-03-31T09:28:59.496Z,99075.00
2023-03-31T09:33:55.535Z,98939.28
2023-03-31T09:38:47.505Z,99074.25
2023-03-31T09:43:41.351Z,99083.88
2023-03-31T09:48:36.634Z,98650.91
2023-03-31T09:53:46.291Z,98828.31
2023-03-31T09:58:48.528Z,98855.09
2023-03-31T10:03:52.237Z,98717.84
2023-03-31T10:09:05.530Z,98996.63
2023-03-31T10:14:16.260Z,98891.88
2023-03-31T10:19:25.697Z,98740.84
2023-03-31T10:24:20.660Z,98781.16
2023-03-31T10:29:17.047Z,99017.34
2023-03-31T10:34:17.152Z,98907.38
2023-03-31T10:39:10.475Z,98719.00
2023-03-31T10:44:04.756Z,98841.31
2023-03-31T10:49:00.376Z,98979.25
2023-03-31T10:54:00.761Z,98792.38
2023-03-31T10:59:12.535Z,98999.44
2023-03-31T11:04:26.469Z,98891.19
2023-03-31T11:09:54.555Z,98728.81
2023-03-31T11:14:58.688Z,98808.16
2023-03-31T11:20:18.210Z,98905.22
2023-03-31T11:25:16.497Z,99003.22
2023-03-31T11:30:20.823Z,98998.69
2023-03-31T11:35:30.990Z,98988.47
2023-03-31T11:40:33.591Z,98716.19
2023-03-31T11:45:32.254Z,98731.38
2023-03-31T11:50:29.313Z,98795.84
2023-03-31T11:55:26.181Z,98795.94
2023-03-31T12:00:21.127Z,98979.53
2023-03-31T12:05:16.339Z,98835.09
2023-03-31T12:10:29.732Z,98973.97
2023-03-31T12:15:24.744Z,98960.25
2023-03-31T12:20:29.900Z,98905.06
2023-03-31T12:25:23.247Z,98598.41
2023-03-31T12:30:35.099Z,98948.19
2023-03-31T12:35:34.592Z,98708.94
2023-03-31T12:40:35.493Z,98923.66
2023-03-31T12:45:35.387Z,98621.53
2023-03-31T12:50:38.781Z,98692.34
2023-03-31T12:55:58.065Z,98811.19
2023-03-31T13:01:12.333Z,98912.69
2023-03-31T13:06:05.849Z,98740.09
2023-03-31T13:10:59.419Z,98805.22
2023-03-31T13:15:56.460Z,98584.25
2023-03-31T13:25:57.509Z,98685.97
2023-03-31T13:30:51.534Z,98914.63
2023-03-31T13:35:48.651Z,98819.63
2023-03-31T13:40:59.067Z,98712.78
2023-03-31T13:46:08.822Z,98701.72
2023-03-31T13:51:00.854Z,98911.09
2023-03-31T13:56:08.082Z,98717.91
2023-03-31T14:01:25.253Z,98677.06
2023-03-31T14:06:35.709Z,98832.88
2023-03-31T14:11:31.951Z,98824.47
2023-03-31T14:16:23.733Z,98797.97
2023-03-31T14:21:28.470Z,98872.44
2023-03-31T14:26:42.474Z,98873.47
2023-03-31T14:32:21.191Z,98692.41
2023-03-31T14:37:21.972Z,98860.38
2023-03-31T14:42:16.636Z,98436.03
2023-03-31T14:47:22.862Z,98855.56
2023-03-31T14:52:18.556Z,98534.97
2023-03-31T14:57:13.771Z,98475.97
2023-03-31T15:02:06.523Z,98786.56
2023-03-31T15:07:01.104Z,98753.56
2023-03-31T15:12:10.998Z,98685.91
2023-03-31T15:17:02.851Z,98612.47
2023-03-31T15:21:57.271Z,98726.94
2023-03-31T15:27:01.397Z,98845.22
2023-03-31T15:31:57.237Z,98650.41
2023-03-31T15:36:49.527Z,98609.13
2023-03-31T15:41:43.089Z,98545.00
2023-03-31T15:46:43.954Z,98874.56
2023-03-31T15:51:41.367Z,98770.84
2023-03-31T15:56:44.763Z,98908.28
2023-03-31T16:01:44.487Z,98892.22
2023-03-31T16:06:50.869Z,98768.06
2023-03-31T16:11:56.805Z,98644.28
2023-03-31T16:16:52.950Z,98577.34
2023-03-31T16:21:52.861Z,98860.31
2023-03-31T16:26:44.673Z,98555.41
2023-03-31T16:31:40.463Z,98810.09
2023-03-31T16:36:32.338Z,98817.69
2023-03-31T16:41:25.461Z,98900.09
2023-03-31T16:46:17.809Z,98602.13
2023-03-31T16:51:09.949Z,98898.28
2023-03-31T16:56:02.514Z,98568.00
2023-03-31T17:00:55.604Z,98416.41
2023-03-31T17:05:53.372Z,98885.69
2023-03-31T17:10:52.891Z,98655.63
2023-03-31T17:15:44.662Z,98530.22
2023-03-31T17:20:36.703Z,98790.63
2023-03-31T17:25:28.964Z,98866.25
2023-03-31T17:30:20.778Z,98846.56
2023-03-31T17:35:20.292Z,98549.63
2023-03-31T17:40:12.599Z,98591.88
2023-03-31T17:45:05.292Z,98810.13
2023-03-31T17:49:57.378Z,98813.03
2023-03-31T17:54:50.335Z,98673.53
2023-03-31T17:59:42.691Z,98842.69
2023-03-31T18:04:34.454Z,98722.38
2023-03-31T18:09:26.622Z,98599.75
2023-03-31T18:14:18.615Z,98692.69
2023-03-31T18:19:11.095Z,98676.94
2023-03-31T18:24:02.866Z,98464.00
2023-03-31T18:28:54.954Z,98674.03
2023-03-31T18:33:46.819Z,98577.03
2023-03-31T18:38:38.605Z,98695.50
2023-03-31T18:43:32.798Z,98532.47
2023-03-31T18:48:25.334Z,98667.69
2023-03-31T18:53:18.615Z,98687.34
2023-03-31T18:58:11.151Z,98848.34
2023-03-31T19:03:03.362Z,98518.69
2023-03-31T19:07:55.226Z,98931.53
2023-03-31T19:12:48.687Z,98933.34
2023-03-31T19:17:40.605Z,98703.16
2023-03-31T19:22:33.025Z,98661.00
2023-03-31T19:27:25.053Z,98494.78
2023-03-31T19:32:17.262Z,98867.44
2023-03-31T19:37:09.768Z,98796.06
2023-03-31T19:42:02.761Z,98907.41
2023-03-31T19:46:54.785Z,98643.44
2023-03-31T19:51:46.779Z,98711.03
2023-03-31T19:56:39.170Z,98682.22
2023-03-31T20:01:31.336Z,98715.06
2023-03-31T20:06:26.597Z,98861.13
2023-03-31T20:11:18.850Z,98780.88
2023-03-31T20:16:17.910Z,98610.47
2023-03-31T20:21:13.034Z,98901.44
2023-03-31T20:26:07.145Z,98797.50
2023-03-31T20:30:59.285Z,98756.13
2023-03-31T20:36:09.958Z,98693.06
2023-03-31T20:41:01.791Z,98501.66
2023-03-31T20:46:03.080Z,98591.84
2023-03-31T20:50:54.964Z,98484.31
2023-03-31T20:55:46.809Z,98573.84
2023-03-31T21:00:38.653Z,98508.44
2023-03-31T21:05:30.823Z,98696.63
2023-03-31T21:10:24.632Z,98484.19
2023-03-31T21:15:16.784Z,98686.13
2023-03-31T21:20:09.196Z,98698.81
2023-03-31T21:25:01.191Z,98693.00
2023-03-31T21:29:53.091Z,98825.41
2023-03-31T21:34:44.901Z,98617.53
2023-03-31T21:39:36.804Z,98682.72
2023-03-31T21:44:28.623Z,98631.66
2023-03-31T21:49:21.033Z,98813.78
2023-03-31T21:54:13.069Z,98642.00
2023-03-31T21:59:04.784Z,98840.91
2023-03-31T22:03:56.617Z,98729.31
2023-03-31T22:08:48.628Z,98921.69
2023-03-31T22:13:41.010Z,98701.97
2023-03-31T22:18:32.771Z,98665.81
2023-03-31T22:23:24.610Z,98916.66
2023-03-31T22:28:17.643Z,98640.78
2023-03-31T22:33:09.520Z,98792.84
2023-03-31T22:38:01.641Z,98640.22
2023-03-31T22:42:54.901Z,98934.69
2023-03-31T22:47:47.050Z,98756.53
2023-03-31T22:52:38.834Z,98608.44
2023-03-31T22:57:30.839Z,98902.34
2023-03-31T23:02:22.656Z,98729.03
2023-03-31T23:07:16.320Z,98489.53
2023-03-31T23:12:08.137Z,98603.63
2023-03-31T23:17:00.267Z,98802.78
2023-03-31T23:21:52.560Z,98906.19
2023-03-31T23:26:44.314Z,98891.19
2023-03-31T23:31:36.257Z,98630.00
2023-03-31T23:36:28.914Z,98409.97
2023-03-31T23:41:22.959Z,98839.88
2023-03-31T23:46:14.857Z,98602.50
2023-03-31T23:51:08.764Z,98897.31
2023-03-31T23:56:07.870Z,98894.97
